createdAt,value
2019-02-23T00:05:30.758Z,4.83
2019-02-23T00:08:07.803Z,6.60
2019-02-23T00:10:32.202Z,5.97
2019-02-23T00:13:09.149Z,8.03
2019-02-23T00:15:33.629Z,4.87
2019-02-23T00:17:58.010Z,6.37
2019-02-23T00:20:22.501Z,4.93
2019-02-23T00:22:46.913Z,5.70
2019-02-23T00:25:11.440Z,4.97
2019-02-23T00:27:35.916Z,5.20
2019-02-23T00:30:00.358Z,4.53
2019-02-23T00:32:24.765Z,5.60
2019-02-23T00:34:55.240Z,6.53
2019-02-23T00:37:19.634Z,5.90
2019-02-23T00:39:44.039Z,5.33
2019-02-23T00:42:08.456Z,8.17
2019-02-23T00:44:32.840Z,5.63
2019-02-23T00:47:02.494Z,5.47
2019-02-23T00:49:35.822Z,4.87
2019-02-23T00:52:01.928Z,5.70
2019-02-23T00:57:02.447Z,4.60
2019-02-23T00:59:26.844Z,5.33
2019-02-23T01:01:51.253Z,4.43
2019-02-23T01:04:15.669Z,4.77
2019-02-23T01:06:40.157Z,7.30
2019-02-23T01:09:16.432Z,5.27
2019-02-23T01:19:28.330Z,4.53
2019-02-23T01:21:52.743Z,4.87
2019-02-23T01:24:17.183Z,6.10
2019-02-23T01:26:41.577Z,5.17
2019-02-23T01:29:06.075Z,6.17
2019-02-23T01:31:30.462Z,5.20
2019-02-23T01:33:54.900Z,7.40
2019-02-23T01:36:19.447Z,5.77
2019-02-23T01:41:20.536Z,4.90
2019-02-23T01:43:45.034Z,5.40
2019-02-23T01:46:09.514Z,6.23
2019-02-23T01:51:10.249Z,6.43
2019-02-23T01:53:34.761Z,6.53
2019-02-23T01:55:59.174Z,6.53
2019-02-23T02:00:59.641Z,4.83
2019-02-23T02:03:24.236Z,6.03
2019-02-23T02:05:48.897Z,4.73
2019-02-23T02:08:13.331Z,4.67
2019-02-23T02:10:37.823Z,6.50
2019-02-23T02:13:02.523Z,5.07
2019-02-23T02:15:27.071Z,6.07
2019-02-23T02:17:51.588Z,5.57
2019-02-23T02:20:16.054Z,5.30
2019-02-23T02:25:17.263Z,4.93
2019-02-23T02:30:21.444Z,5.53
2019-02-23T02:32:45.982Z,8.57
2019-02-23T02:35:31.203Z,6.77
2019-02-23T02:40:31.778Z,5.13
2019-02-23T02:42:56.197Z,5.73
2019-02-23T02:45:20.614Z,6.67
2019-02-23T02:47:45.092Z,4.97
2019-02-23T02:53:06.214Z,7.97
2019-02-23T02:55:30.612Z,5.93
2019-02-23T02:57:55.021Z,6.00
2019-02-23T03:00:19.439Z,6.97
2019-02-23T03:02:43.839Z,5.47
2019-02-23T03:05:29.049Z,6.57
2019-02-23T03:07:53.522Z,7.03
2019-02-23T03:10:23.232Z,8.30
2019-02-23T03:15:23.584Z,6.40
2019-02-23T03:17:47.995Z,8.40
2019-02-23T03:22:48.749Z,6.17
2019-02-23T03:25:13.248Z,6.73
2019-02-23T03:30:13.736Z,5.30
2019-02-23T03:32:38.164Z,6.60
2019-02-23T03:35:02.564Z,7.53
2019-02-23T03:37:26.995Z,6.83
2019-02-23T03:39:51.413Z,7.07
2019-02-23T03:42:15.843Z,8.40
2019-02-23T03:47:17.054Z,6.83
2019-02-23T03:54:54.040Z,6.37
2019-02-23T03:57:18.459Z,7.37
2019-02-23T03:59:42.945Z,7.83
2019-02-23T04:02:07.436Z,6.10
2019-02-23T04:04:31.843Z,7.27
2019-02-23T04:06:56.244Z,6.90
2019-02-23T04:09:20.767Z,8.33
2019-02-23T04:11:57.721Z,8.67
2019-02-23T04:14:22.151Z,6.60
2019-02-23T04:16:46.566Z,7.43
2019-02-23T04:21:47.072Z,8.20
2019-02-23T04:24:11.515Z,8.63
2019-02-23T04:26:35.920Z,8.17
2019-02-23T04:29:00.360Z,7.93
2019-02-23T04:31:24.772Z,9.23
2019-02-23T04:33:49.216Z,10.07
2019-02-23T04:36:13.614Z,9.47
2019-02-23T04:41:17.565Z,9.90
2019-02-23T04:48:54.998Z,10.30
2019-02-23T04:51:19.497Z,9.53
2019-02-23T04:53:43.896Z,9.10
2019-02-23T04:56:08.325Z,10.63
2019-02-23T04:58:32.728Z,9.77
2019-02-23T05:00:57.161Z,12.27
2019-02-23T05:03:21.644Z,11.07
2019-02-23T05:05:46.149Z,9.33
2019-02-23T05:08:22.653Z,8.80
2019-02-23T05:10:47.077Z,10.53
2019-02-23T05:15:47.713Z,9.17
2019-02-23T05:18:12.112Z,12.67
2019-02-23T05:20:36.568Z,13.57
2019-02-23T05:23:01.032Z,10.13
2019-02-23T05:30:37.004Z,7.97
2019-02-23T05:33:01.412Z,9.87
2019-02-23T05:38:05.191Z,9.33
2019-02-23T05:40:29.603Z,9.63
2019-02-23T05:43:00.899Z,13.20
2019-02-23T05:45:25.673Z,10.50
2019-02-23T05:47:50.125Z,8.63
2019-02-23T05:50:14.524Z,9.60
2019-02-23T05:52:39.049Z,9.67
2019-02-23T05:55:03.603Z,7.93
2019-02-23T05:57:28.015Z,10.03
2019-02-23T05:59:52.476Z,8.53
2019-02-23T06:02:16.942Z,10.03
2019-02-23T06:04:41.313Z,10.97
2019-02-23T06:07:05.776Z,9.27
2019-02-23T06:09:30.212Z,11.03
2019-02-23T06:11:54.624Z,10.80
2019-02-23T06:14:19.057Z,9.07
2019-02-23T06:16:43.473Z,9.47
2019-02-23T06:19:07.901Z,10.63
2019-02-23T06:21:32.297Z,9.53
2019-02-23T06:26:33.200Z,10.17
2019-02-23T06:28:57.618Z,9.43
2019-02-23T06:31:22.023Z,11.30
2019-02-23T06:33:46.467Z,10.90
2019-02-23T06:36:10.915Z,11.27
2019-02-23T06:38:35.359Z,10.30
2019-02-23T06:40:59.784Z,11.20
2019-02-23T06:43:24.206Z,10.93
2019-02-23T06:45:48.697Z,10.40
2019-02-23T06:48:13.166Z,8.67
2019-02-23T06:55:53.379Z,12.37
2019-02-23T06:58:17.881Z,9.10
2019-02-23T07:00:42.392Z,11.77
2019-02-23T07:03:06.788Z,9.50
2019-02-23T07:05:31.216Z,8.17
2019-02-23T07:07:55.643Z,9.67
2019-02-23T07:10:20.071Z,8.43
2019-02-23T07:12:44.461Z,9.77
2019-02-23T07:15:10.630Z,9.77
2019-02-23T07:17:35.044Z,8.50
2019-02-23T07:19:59.476Z,9.00
2019-02-23T07:22:24.047Z,9.90
2019-02-23T07:24:48.689Z,9.80
2019-02-23T07:27:13.125Z,9.57
2019-02-23T07:29:37.620Z,9.57
2019-02-23T07:32:02.048Z,9.80
2019-02-23T07:34:26.498Z,8.40
2019-02-23T07:36:50.914Z,9.50
2019-02-23T07:39:15.407Z,12.27
2019-02-23T07:41:39.838Z,6.73
2019-02-23T07:44:04.261Z,10.17
2019-02-23T07:46:28.707Z,10.40
2019-02-23T07:48:53.183Z,8.63
2019-02-23T07:51:17.619Z,8.53
2019-02-23T07:53:42.035Z,8.83
2019-02-23T07:56:06.484Z,10.27
2019-02-23T07:58:30.891Z,8.20
2019-02-23T08:00:55.324Z,7.97
2019-02-23T08:03:19.740Z,10.00
2019-02-23T08:05:44.167Z,7.70
2019-02-23T08:08:08.590Z,9.70
2019-02-23T08:10:33.350Z,10.83
2019-02-23T08:12:57.785Z,8.47
2019-02-23T08:15:22.224Z,8.87
2019-02-23T08:17:46.647Z,10.73
2019-02-23T08:20:13.126Z,9.67
2019-02-23T08:22:37.772Z,10.80
2019-02-23T08:25:02.177Z,8.47
2019-02-23T08:27:26.672Z,8.83
2019-02-23T08:29:51.186Z,10.07
2019-02-23T08:32:15.617Z,8.13
2019-02-23T08:34:40.032Z,8.97
2019-02-23T08:37:04.480Z,10.00
2019-02-23T08:39:28.902Z,9.23
2019-02-23T08:41:53.315Z,8.07
2019-02-23T08:44:17.768Z,10.37
2019-02-23T08:46:42.181Z,9.93
2019-02-23T08:49:06.614Z,9.97
2019-02-23T08:51:31.020Z,9.60
2019-02-23T08:53:55.534Z,11.37
2019-02-23T08:56:20.011Z,9.33
2019-02-23T08:58:44.451Z,9.70
2019-02-23T09:01:08.919Z,9.37
2019-02-23T09:03:33.532Z,10.67
2019-02-23T09:05:58.004Z,10.43
2019-02-23T09:08:24.096Z,8.73
2019-02-23T09:10:48.501Z,9.43
2019-02-23T09:13:12.990Z,7.70
2019-02-23T09:15:37.444Z,8.20
2019-02-23T09:18:01.908Z,8.57
2019-02-23T09:20:29.423Z,8.33
2019-02-23T09:22:59.705Z,9.70
2019-02-23T09:25:19.494Z,9.60
2019-02-23T09:27:43.904Z,8.90
2019-02-23T09:30:13.779Z,8.13
2019-02-23T09:32:38.285Z,9.03
2019-02-23T09:35:02.771Z,8.73
2019-02-23T09:37:27.214Z,8.40
2019-02-23T09:39:51.647Z,9.07
2019-02-23T09:42:16.094Z,7.47
2019-02-23T09:44:40.575Z,10.37
2019-02-23T09:47:05.194Z,9.60
2019-02-23T09:49:29.564Z,9.97
2019-02-23T09:51:54.015Z,11.00
2019-02-23T09:54:18.434Z,10.70
2019-02-23T09:56:42.947Z,9.00
2019-02-23T09:59:07.557Z,8.27
2019-02-23T10:01:32.292Z,8.33
2019-02-23T10:03:56.691Z,8.23
2019-02-23T10:06:21.315Z,8.27
2019-02-23T10:08:45.728Z,9.13
2019-02-23T10:11:10.268Z,8.77
2019-02-23T10:13:34.710Z,8.77
2019-02-23T10:15:59.260Z,8.23
2019-02-23T10:18:23.699Z,8.30
2019-02-23T10:20:48.116Z,9.33
2019-02-23T10:23:21.488Z,7.17
2019-02-23T10:25:38.657Z,9.40
2019-02-23T10:28:03.141Z,8.97
2019-02-23T10:30:27.487Z,7.63
2019-02-23T10:32:51.942Z,7.57
2019-02-23T10:35:16.353Z,8.00
2019-02-23T10:37:40.908Z,9.33
2019-02-23T10:40:07.975Z,8.07
2019-02-23T10:42:32.386Z,8.17
2019-02-23T10:44:56.831Z,7.60
2019-02-23T10:47:21.253Z,6.70
2019-02-23T10:49:45.689Z,8.93
2019-02-23T10:52:10.233Z,7.73
2019-02-23T10:54:34.659Z,8.83
2019-02-23T10:56:59.094Z,9.50
2019-02-23T10:59:23.574Z,7.80
2019-02-23T11:01:48.052Z,7.83
2019-02-23T11:04:12.474Z,8.50
2019-02-23T11:06:38.483Z,9.33
2019-02-23T11:09:03.163Z,8.33
2019-02-23T11:11:27.737Z,8.90
2019-02-23T11:13:52.192Z,7.03
2019-02-23T11:16:16.679Z,7.13
2019-02-23T11:18:41.254Z,8.33
2019-02-23T11:21:06.012Z,7.13
2019-02-23T11:23:30.415Z,8.10
2019-02-23T11:25:54.905Z,7.47
2019-02-23T11:28:19.314Z,7.73
2019-02-23T11:30:43.804Z,7.33
2019-02-23T11:33:08.249Z,7.77
2019-02-23T11:35:32.672Z,7.33
2019-02-23T11:37:57.100Z,7.53
2019-02-23T11:40:23.416Z,6.60
2019-02-23T11:42:47.785Z,8.40
2019-02-23T11:45:12.856Z,7.80
2019-02-23T11:47:38.164Z,6.23
2019-02-23T11:50:02.560Z,7.37
2019-02-23T11:52:27.007Z,9.37
2019-02-23T11:54:51.439Z,7.60
2019-02-23T11:57:15.844Z,7.37
2019-02-23T11:59:40.284Z,7.97
2019-02-23T12:02:04.750Z,7.30
2019-02-23T12:04:29.282Z,7.17
2019-02-23T12:06:53.742Z,7.97
2019-02-23T12:09:18.166Z,9.17
2019-02-23T12:11:42.593Z,7.70
2019-02-23T12:14:07.079Z,8.27
2019-02-23T12:16:31.582Z,7.50
2019-02-23T12:18:56.097Z,7.03
2019-02-23T12:21:20.523Z,7.17
2019-02-23T12:23:44.967Z,6.70
2019-02-23T12:26:09.491Z,7.80
2019-02-23T12:28:33.921Z,8.23
2019-02-23T12:30:58.353Z,7.93
2019-02-23T12:33:22.786Z,7.30
2019-02-23T12:35:47.227Z,7.20
2019-02-23T12:38:11.718Z,6.70
2019-02-23T12:40:36.256Z,7.50
2019-02-23T12:43:00.771Z,7.07
2019-02-23T12:45:25.246Z,5.90
2019-02-23T12:47:51.263Z,5.43
2019-02-23T12:50:15.769Z,6.27
2019-02-23T12:52:40.306Z,6.57
2019-02-23T12:55:06.083Z,6.63
2019-02-23T12:57:30.558Z,9.77
2019-02-23T12:59:55.011Z,7.83
2019-02-23T13:02:19.519Z,7.33
2019-02-23T13:04:44.009Z,6.20
2019-02-23T13:07:08.519Z,8.10
2019-02-23T13:09:33.570Z,7.47
2019-02-23T13:12:15.950Z,8.23
2019-02-23T13:14:55.666Z,6.67
2019-02-23T13:17:51.831Z,5.40
2019-02-23T13:20:38.961Z,6.07
2019-02-23T13:23:25.788Z,6.10
2019-02-23T13:26:09.615Z,6.37
2019-02-23T13:28:43.256Z,6.83
2019-02-23T13:31:18.951Z,6.47
2019-02-23T13:34:19.721Z,5.73
2019-02-23T13:37:15.796Z,5.53
2019-02-23T13:39:52.287Z,6.67
2019-02-23T13:42:22.535Z,6.33
2019-02-23T13:45:08.088Z,6.90
2019-02-23T13:47:41.260Z,31.80
2019-02-23T13:50:14.730Z,6.77
2019-02-23T13:52:42.317Z,7.47
2019-02-23T13:55:38.258Z,7.43
2019-02-23T13:58:05.756Z,8.17
2019-02-23T14:00:59.813Z,6.20
2019-02-23T14:03:42.308Z,8.10
2019-02-23T14:06:26.215Z,6.80
2019-02-23T14:09:21.110Z,5.23
2019-02-23T14:11:48.591Z,6.77
2019-02-23T14:14:32.302Z,7.50
2019-02-23T14:17:08.887Z,5.40
2019-02-23T14:19:55.727Z,6.80
2019-02-23T14:22:41.339Z,7.87
2019-02-23T14:25:28.330Z,5.70
2019-02-23T14:28:06.626Z,5.90
2019-02-23T14:30:50.662Z,6.20
2019-02-23T14:33:34.550Z,5.43
2019-02-23T14:36:16.907Z,6.10
2019-02-23T14:39:07.131Z,6.17
2019-02-23T14:41:46.527Z,4.50
2019-02-23T14:44:26.044Z,7.10
2019-02-23T14:47:09.774Z,7.43
2019-02-23T14:49:37.277Z,5.80
2019-02-23T14:52:13.771Z,6.60
2019-02-23T14:55:01.212Z,5.30
2019-02-23T14:57:31.321Z,7.07
2019-02-23T15:00:18.539Z,6.00
2019-02-23T15:03:04.262Z,5.10
2019-02-23T15:05:43.704Z,6.03
2019-02-23T15:08:22.918Z,6.80
2019-02-23T15:11:09.744Z,6.67
2019-02-23T15:13:53.818Z,7.30
2019-02-23T15:16:49.735Z,6.63
2019-02-23T15:19:32.036Z,6.07
2019-02-23T15:22:11.166Z,6.57
2019-02-23T15:25:13.271Z,6.87
2019-02-23T15:27:40.447Z,6.70
2019-02-23T15:30:07.957Z,7.30
2019-02-23T15:32:53.419Z,5.70
2019-02-23T15:35:26.717Z,6.30
2019-02-23T15:38:16.579Z,6.60
2019-02-23T15:40:52.639Z,6.63
2019-02-23T15:43:38.282Z,5.57
2019-02-23T15:46:17.502Z,6.23
2019-02-23T15:49:11.739Z,8.97
2019-02-23T15:51:36.366Z,6.13
2019-02-23T15:54:00.778Z,5.00
2019-02-23T15:56:25.315Z,6.53
2019-02-23T15:58:49.809Z,6.70
2019-02-23T16:01:14.299Z,6.90
2019-02-23T16:03:38.760Z,5.63
2019-02-23T16:06:03.556Z,4.70
2019-02-23T16:08:28.051Z,5.53
2019-02-23T16:10:52.463Z,5.53
2019-02-23T16:13:16.992Z,5.80
2019-02-23T16:15:41.434Z,8.77
2019-02-23T16:18:06.024Z,6.90
2019-02-23T16:20:30.497Z,7.40
2019-02-23T16:22:54.935Z,9.57
2019-02-23T16:25:19.418Z,7.73
2019-02-23T16:27:43.860Z,7.70
2019-02-23T16:30:10.511Z,9.70
2019-02-23T16:32:34.904Z,9.00
2019-02-23T16:34:59.323Z,9.60
2019-02-23T16:37:23.747Z,8.93
2019-02-23T16:39:48.181Z,8.10
2019-02-23T16:42:12.581Z,7.50
2019-02-23T16:44:37.081Z,7.43
2019-02-23T16:47:01.512Z,6.53
2019-02-23T16:49:25.962Z,7.07
2019-02-23T16:51:50.375Z,7.10
2019-02-23T16:54:14.946Z,9.53
2019-02-23T16:56:39.426Z,7.73
2019-02-23T16:59:03.933Z,6.77
2019-02-23T17:01:28.500Z,6.80
2019-02-23T17:03:52.957Z,7.70
2019-02-23T17:06:17.363Z,9.53
2019-02-23T17:08:41.790Z,9.40
2019-02-23T17:11:06.495Z,7.40
2019-02-23T17:13:30.894Z,5.93
2019-02-23T17:15:55.318Z,6.33
2019-02-23T17:18:19.703Z,6.30
2019-02-23T17:20:44.105Z,7.80
2019-02-23T17:23:08.501Z,9.03
2019-02-23T17:25:32.933Z,9.30
2019-02-23T17:27:57.351Z,9.20
2019-02-23T17:30:21.793Z,11.20
2019-02-23T17:32:46.192Z,12.80
2019-02-23T17:35:10.701Z,10.97
2019-02-23T17:37:35.121Z,12.77
2019-02-23T17:39:59.590Z,10.73
2019-02-23T17:42:28.068Z,12.27
2019-02-23T17:44:50.441Z,11.63
2019-02-23T17:47:15.082Z,12.60
2019-02-23T17:49:39.533Z,11.83
2019-02-23T17:52:03.961Z,11.63
2019-02-23T17:54:28.382Z,9.70
2019-02-23T17:56:52.877Z,10.27
2019-02-23T17:59:17.326Z,9.23
2019-02-23T18:01:41.738Z,11.50
2019-02-23T18:04:06.260Z,10.30
2019-02-23T18:06:31.088Z,9.60
2019-02-23T18:08:55.510Z,10.33
2019-02-23T18:11:19.945Z,8.90
2019-02-23T18:13:44.459Z,9.37
2019-02-23T18:16:08.872Z,10.07
2019-02-23T18:18:33.471Z,11.03
2019-02-23T18:20:58.026Z,9.43
2019-02-23T18:23:22.554Z,11.10
2019-02-23T18:25:46.990Z,11.20
2019-02-23T18:28:11.586Z,11.00
2019-02-23T18:30:36.071Z,10.17
2019-02-23T18:33:00.543Z,10.43
2019-02-23T18:35:25.052Z,9.37
2019-02-23T18:37:49.510Z,15.83
2019-02-23T18:40:14.038Z,17.03
2019-02-23T18:42:38.472Z,16.10
2019-02-23T18:45:03.023Z,17.87
2019-02-23T18:47:27.514Z,16.90
2019-02-23T18:49:52.037Z,15.80
2019-02-23T18:52:16.532Z,12.47
2019-02-23T18:54:40.955Z,12.00
2019-02-23T18:57:05.355Z,11.73
2019-02-23T18:59:29.766Z,12.63
2019-02-23T19:01:54.384Z,13.50
2019-02-23T19:04:18.840Z,12.63
2019-02-23T19:06:43.359Z,12.03
2019-02-23T19:09:07.972Z,10.33
2019-02-23T19:11:32.549Z,13.23
2019-02-23T19:13:57.068Z,12.63
2019-02-23T19:16:23.298Z,12.93
2019-02-23T19:18:47.596Z,15.43
2019-02-23T19:21:12.106Z,14.83
2019-02-23T19:23:36.619Z,14.67
2019-02-23T19:26:01.149Z,13.93
2019-02-23T19:28:25.572Z,14.57
2019-02-23T19:30:50.027Z,13.97
2019-02-23T19:33:14.453Z,13.13
2019-02-23T19:35:38.966Z,13.40
2019-02-23T19:38:03.375Z,13.37
2019-02-23T19:40:27.907Z,11.93
2019-02-23T19:42:52.354Z,13.47
2019-02-23T19:45:16.787Z,13.17
2019-02-23T19:47:42.462Z,12.83
2019-02-23T19:50:10.007Z,14.43
2019-02-23T19:52:35.185Z,11.57
2019-02-23T19:54:59.589Z,11.90
2019-02-23T19:57:24.113Z,11.23
2019-02-23T19:59:48.671Z,11.30
2019-02-23T20:02:13.188Z,13.73
2019-02-23T20:04:37.698Z,11.73
2019-02-23T20:07:02.236Z,13.87
2019-02-23T20:09:26.753Z,13.13
2019-02-23T20:11:51.309Z,12.23
2019-02-23T20:14:15.738Z,15.83
2019-02-23T20:29:06.365Z,15.43
2019-02-23T20:31:48.543Z,15.00
2019-02-23T20:34:30.668Z,16.50
2019-02-23T20:37:13.288Z,14.87
2019-02-23T20:39:55.446Z,17.07
2019-02-23T20:42:37.786Z,15.93
2019-02-23T20:45:20.477Z,18.33
2019-02-23T20:48:02.592Z,14.40
2019-02-23T20:50:44.695Z,16.60
2019-02-23T20:53:27.100Z,17.00
2019-02-23T20:56:09.291Z,16.60
2019-02-23T20:58:51.506Z,17.50
2019-02-23T21:01:34.003Z,19.37
2019-02-23T21:04:16.384Z,21.87
2019-02-23T21:06:58.723Z,21.67
2019-02-23T21:09:41.261Z,21.50
2019-02-23T21:12:23.642Z,24.20
2019-02-23T21:15:08.230Z,22.67
2019-02-23T21:17:50.668Z,24.33
2019-02-23T21:20:33.213Z,23.83
2019-02-23T21:23:15.405Z,28.13
2019-02-23T21:25:57.986Z,24.00
2019-02-23T21:28:40.329Z,22.77
2019-02-23T21:31:22.908Z,24.27
2019-02-23T21:34:05.515Z,21.20
2019-02-23T21:36:47.591Z,22.13
2019-02-23T21:39:29.964Z,19.77
2019-02-23T21:41:53.563Z,21.63
2019-02-23T21:44:19.214Z,19.53
2019-02-23T21:46:43.658Z,17.73
2019-02-23T21:49:08.072Z,18.50
2019-02-23T21:51:32.523Z,19.47
2019-02-23T21:53:56.935Z,18.20
2019-02-23T21:56:21.375Z,18.07
2019-02-23T21:58:45.781Z,18.77
2019-02-23T22:01:12.575Z,17.80
2019-02-23T22:03:37.792Z,18.93
2019-02-23T22:06:02.494Z,18.17
2019-02-23T22:08:26.899Z,18.57
2019-02-23T22:10:51.314Z,14.93
2019-02-23T22:13:15.721Z,17.73
2019-02-23T22:15:40.102Z,17.33
2019-02-23T22:18:04.511Z,17.13
2019-02-23T22:20:28.930Z,17.43
2019-02-23T22:22:54.705Z,17.83
2019-02-23T22:25:19.329Z,21.97
2019-02-23T22:27:43.854Z,24.37
2019-02-23T22:30:08.878Z,21.67
2019-02-23T22:32:33.350Z,28.40
2019-02-23T22:34:57.706Z,24.20
2019-02-23T22:37:22.117Z,22.20
2019-02-23T22:39:46.509Z,21.97
2019-02-23T22:42:10.916Z,22.60
2019-02-23T22:44:35.417Z,21.83
2019-02-23T22:46:59.808Z,18.63
2019-02-23T22:49:24.254Z,22.00
2019-02-23T22:51:48.658Z,21.23
2019-02-23T22:54:13.071Z,21.13
2019-02-23T22:56:37.471Z,18.10
2019-02-23T22:59:01.877Z,20.23
2019-02-23T23:01:27.020Z,18.77
2019-02-23T23:03:51.518Z,20.70
2019-02-23T23:06:15.936Z,22.07
2019-02-23T23:08:40.395Z,21.63
2019-02-23T23:11:04.985Z,23.73
2019-02-23T23:13:29.402Z,22.37
2019-02-23T23:15:53.819Z,21.90
2019-02-23T23:18:18.313Z,21.47
2019-02-23T23:20:42.738Z,23.00
2019-02-23T23:23:07.145Z,22.23
2019-02-23T23:25:31.642Z,23.60
2019-02-23T23:27:56.038Z,22.67
2019-02-23T23:30:20.470Z,23.60
2019-02-23T23:32:44.888Z,20.83
2019-02-23T23:35:09.482Z,20.33
2019-02-23T23:37:33.873Z,25.63
2019-02-23T23:39:58.357Z,23.47
2019-02-23T23:42:22.849Z,24.73
2019-02-23T23:44:47.269Z,22.63
2019-02-23T23:47:11.663Z,24.63
2019-02-23T23:49:36.066Z,23.73
2019-02-23T23:52:00.489Z,25.80
2019-02-23T23:54:24.880Z,20.53
2019-02-23T23:56:49.310Z,22.20
2019-02-23T23:59:13.729Z,23.70
